Time;durP1;ratioP1;P1;durP2;ratioP2;P2;SDS_P1;SDS_P2;PMS_P1;PMS_P2;Temp;Humidity;BMP_temperature;BMP_pressure;BME280_temperature;BME280_humidity;BME280_pressure;Samples;Min_cycle;Max_cycle;Signal;HPM_P1;HPM_P2
2021/05/31 00:01:14;;;;;;;1.65;1.55;;;;;;;;;;5075384;28;20468;-72
2021/05/31 00:03:40;;;;;;;0.98;0.98;;;;;;;;;;5075314;28;20016;-72
2021/05/31 00:06:06;;;;;;;2.60;2.00;;;;;;;;;;5092801;28;20033;-71
2021/05/31 00:08:32;;;;;;;2.05;1.85;;;;;;;;;;5093683;28;20051;-71
2021/05/31 00:11:00;;;;;;;2.25;2.10;;;;;;;;;;5093334;28;20073;-71
2021/05/31 00:13:27;;;;;;;;;;;;;;;;;;5093960;28;20021;-71
2021/05/31 00:15:55;;;;;;;3.35;2.25;;;;;;;;;;5075189;28;19991;-72
2021/05/31 00:18:21;;;;;;;4.15;1.83;;;;;;;;;;5077498;28;20028;-71
2021/05/31 00:20:47;;;;;;;1.67;1.58;;;;;;;;;;5078507;28;20468;-73
2021/05/31 00:23:13;;;;;;;2.63;1.52;;;;;;;;;;5078742;28;20071;-72
2021/05/31 00:25:39;;;;;;;2.90;1.83;;;;;;;;;;5078628;28;20032;-71
2021/05/31 00:28:06;;;;;;;1.45;1.35;;;;;;;;;;5078340;28;20043;-71
2021/05/31 00:30:32;;;;;;;2.83;1.83;;;;;;;;;;5096798;28;20457;-71
2021/05/31 00:32:58;;;;;;;1.52;1.42;;;;;;;;;;5078581;28;20101;-71
2021/05/31 00:35:25;;;;;;;2.72;1.55;;;;;;;;;;5078300;28;20517;-72
2021/05/31 00:37:55;;;;;;;0.90;0.90;;;;;;;;;;5078140;28;20400;-71
2021/05/31 00:40:21;;;;;;;1.50;1.40;;;;;;;;;;5096338;28;20024;-71
2021/05/31 00:42:48;;;;;;;1.57;1.43;;;;;;;;;;5096627;28;20032;-71
2021/05/31 00:45:14;;;;;;;2.13;1.40;;;;;;;;;;5078331;28;20118;-71
2021/05/31 00:47:40;;;;;;;0.85;0.85;;;;;;;;;;5096224;28;20099;-71
2021/05/31 00:50:07;;;;;;;1.85;1.02;;;;;;;;;;5078301;28;20024;-73
2021/05/31 00:52:34;;;;;;;3.08;1.45;;;;;;;;;;5077955;28;20116;-70
2021/05/31 00:55:00;;;;;;;1.00;1.00;;;;;;;;;;5095806;28;20023;-71
2021/05/31 00:57:26;;;;;;;0.90;0.90;;;;;;;;;;5096637;28;20048;-70
2021/05/31 00:59:53;;;;;;;0.70;0.63;;;;;;;;;;5078178;28;20024;-71
2021/05/31 01:02:19;;;;;;;1.70;0.90;;;;;;;;;;5077798;28;20241;-71
2021/05/31 01:04:45;;;;;;;0.55;0.55;;;;;;;;;;5096191;28;20028;-72
2021/05/31 01:07:12;;;;;;;0.65;0.60;;;;;;;;;;5096112;28;20028;-70
2021/05/31 01:10:07;;;;;;;4.23;0.90;;;;;;;;;;5095564;28;20031;-70
2021/05/31 01:12:37;;;;;;;0.63;0.57;;;;;;;;;;5074318;28;20279;-71
2021/05/31 01:15:09;;;;;;;1.75;0.70;;;;;;;;;;5096541;28;20040;-71
2021/05/31 01:17:42;;;;;;;0.63;0.63;;;;;;;;;;5095967;28;20024;-70
2021/05/31 01:20:10;;;;;;;0.68;0.68;;;;;;;;;;5077756;28;20024;-70
2021/05/31 01:22:36;;;;;;;;;;;;;;;;;;5077823;28;20020;-70
2021/05/31 01:25:14;;;;;;;0.95;0.75;;;;;;;;;;5077565;28;19904;-71
2021/05/31 01:27:59;;;;;;;0.77;0.70;;;;;;;;;;5077529;28;20020;-70
2021/05/31 01:30:25;;;;;;;0.38;0.38;;;;;;;;;;5094418;28;20024;-70
2021/05/31 01:32:52;;;;;;;0.80;0.25;;;;;;;;;;5077433;28;20024;-70
2021/05/31 01:35:23;;;;;;;3.97;1.52;;;;;;;;;;5077441;28;20028;-71
2021/05/31 01:37:49;;;;;;;2.75;0.52;;;;;;;;;;5076919;28;20044;-71
2021/05/31 01:40:15;;;;;;;0.60;0.20;;;;;;;;;;5095155;28;20405;-70
2021/05/31 01:42:42;;;;;;;0.40;0.20;;;;;;;;;;5095758;28;20497;-70
2021/05/31 01:45:10;;;;;;;0.47;0.40;;;;;;;;;;5076858;28;20031;-71
2021/05/31 01:47:37;;;;;;;0.40;0.30;;;;;;;;;;5077137;28;20051;-70
2021/05/31 01:50:06;;;;;;;1.58;0.20;;;;;;;;;;5077145;28;20016;-71
2021/05/31 01:52:32;;;;;;;3.13;0.25;;;;;;;;;;5095336;28;20016;-71
2021/05/31 01:54:59;;;;;;;1.90;0.27;;;;;;;;;;5095228;28;20030;-71
2021/05/31 01:57:25;;;;;;;0.50;0.50;;;;;;;;;;5094541;28;20316;-69
2021/05/31 01:59:52;;;;;;;0.40;0.40;;;;;;;;;;5077000;28;20373;-70
2021/05/31 02:02:18;;;;;;;1.33;0.23;;;;;;;;;;5095054;28;20028;-71
2021/05/31 02:04:45;;;;;;;1.10;0.60;;;;;;;;;;5094957;28;20024;-71
2021/05/31 02:07:11;;;;;;;1.30;0.47;;;;;;;;;;5076646;28;20028;-71
2021/05/31 02:09:38;;;;;;;0.35;0.32;;;;;;;;;;5076933;28;20476;-70
2021/05/31 02:12:06;;;;;;;1.35;0.50;;;;;;;;;;5076350;28;20024;-71
2021/05/31 02:14:33;;;;;;;0.85;0.20;;;;;;;;;;5076614;28;20031;-72
2021/05/31 02:17:12;;;;;;;2.13;0.70;;;;;;;;;;5094746;28;20020;-70
2021/05/31 02:19:39;;;;;;;0.45;0.30;;;;;;;;;;5076554;28;20020;-70
2021/05/31 02:22:08;;;;;;;2.85;0.15;;;;;;;;;;5076238;28;20031;-72
2021/05/31 02:24:36;;;;;;;0.10;0.10;;;;;;;;;;5094962;28;20484;-71
2021/05/31 02:27:03;;;;;;;2.38;0.85;;;;;;;;;;5094009;28;20055;-71
2021/05/31 02:29:30;;;;;;;1.45;0.22;;;;;;;;;;5076819;28;20020;-72
2021/05/31 02:31:56;;;;;;;0.75;0.30;;;;;;;;;;5076896;28;20034;-71
2021/05/31 02:34:22;;;;;;;0.63;0.32;;;;;;;;;;5093903;28;20097;-71
2021/05/31 02:36:49;;;;;;;2.47;0.30;;;;;;;;;;5075934;28;20051;-71
2021/05/31 02:39:16;;;;;;;2.05;0.30;;;;;;;;;;5076220;28;20378;-70
2021/05/31 02:41:42;;;;;;;0.63;0.52;;;;;;;;;;5094581;28;20030;-71
2021/05/31 02:44:09;;;;;;;0.32;0.32;;;;;;;;;;5094097;28;20529;-70
2021/05/31 02:46:35;;;;;;;0.40;0.40;;;;;;;;;;5093977;28;20032;-72
2021/05/31 02:49:03;;;;;;;0.88;0.68;;;;;;;;;;5094280;28;20016;-72
2021/05/31 02:51:29;;;;;;;1.20;0.40;;;;;;;;;;5076073;28;20433;-71
2021/05/31 02:53:55;;;;;;;1.25;0.52;;;;;;;;;;5094075;28;20044;-71
2021/05/31 02:56:21;;;;;;;2.30;0.40;;;;;;;;;;5076005;28;20031;-71
2021/05/31 02:58:47;;;;;;;1.77;0.60;;;;;;;;;;5075989;28;20020;-72
2021/05/31 03:01:15;;;;;;;0.60;0.60;;;;;;;;;;5093991;28;20020;-71
2021/05/31 03:03:41;;;;;;;0.90;0.52;;;;;;;;;;5075909;28;20020;-71
2021/05/31 03:06:07;;;;;;;1.10;0.60;;;;;;;;;;5093665;28;20028;-71
2021/05/31 03:08:34;;;;;;;0.65;0.30;;;;;;;;;;5094135;28;20125;-70
2021/05/31 03:11:00;;;;;;;0.53;0.30;;;;;;;;;;5093716;28;20032;-71
2021/05/31 03:13:26;;;;;;;1.05;0.45;;;;;;;;;;5094161;28;20031;-70
2021/05/31 03:15:53;;;;;;;0.38;0.35;;;;;;;;;;5093665;28;20031;-70
2021/05/31 03:18:19;;;;;;;;;;;;;;;;;;5094585;28;20024;-70
2021/05/31 03:20:46;;;;;;;0.43;0.30;;;;;;;;;;5093879;28;19910;-70
2021/05/31 03:23:12;;;;;;;0.65;0.40;;;;;;;;;;5093268;28;20020;-71
2021/05/31 03:25:38;;;;;;;0.65;0.40;;;;;;;;;;5093767;28;20028;-70
2021/05/31 03:28:05;;;;;;;0.63;0.63;;;;;;;;;;5075603;28;20024;-70
2021/05/31 03:30:32;;;;;;;0.90;0.43;;;;;;;;;;5075668;28;20020;-70
2021/05/31 03:32:58;;;;;;;0.55;0.55;;;;;;;;;;5093736;28;20024;-70
2021/05/31 03:35:25;;;;;;;1.77;0.63;;;;;;;;;;5075325;28;20147;-69
2021/05/31 03:37:51;;;;;;;1.05;0.40;;;;;;;;;;5093694;28;20040;-68
2021/05/31 03:40:21;;;;;;;0.47;0.47;;;;;;;;;;5093674;28;20537;-71
2021/05/31 03:42:47;;;;;;;0.50;0.50;;;;;;;;;;5075689;28;20024;-69
2021/05/31 03:45:14;;;;;;;0.40;0.40;;;;;;;;;;5093583;28;20032;-68
2021/05/31 03:47:40;;;;;;;0.88;0.52;;;;;;;;;;5093875;28;20024;-68
2021/05/31 03:50:06;;;;;;;0.22;0.22;;;;;;;;;;5093261;28;20081;-68
2021/05/31 03:52:32;;;;;;;1.20;0.55;;;;;;;;;;5094507;28;20020;-68
2021/05/31 03:54:59;;;;;;;0.82;0.45;;;;;;;;;;5097536;28;20027;-69
2021/05/31 03:57:25;;;;;;;0.82;0.45;;;;;;;;;;5097000;28;20016;-69
2021/05/31 03:59:52;;;;;;;0.95;0.90;;;;;;;;;;5097734;28;20024;-69
2021/05/31 04:02:18;;;;;;;;;;;;;;;;;;5097817;28;20130;-67
2021/05/31 04:04:47;;;;;;;1.85;0.90;;;;;;;;;;5097133;28;19904;-69
2021/05/31 04:12:35;;;;;;;1.02;0.80;;;;;;;;;;5097541;28;20157;-69
2021/05/31 04:15:01;;;;;;;1.08;0.68;;;;;;;;;;5079457;28;20421;-68
2021/05/31 04:17:27;;;;;;;0.57;0.50;;;;;;;;;;5097329;28;20032;-69
2021/05/31 04:19:54;;;;;;;1.02;0.93;;;;;;;;;;5097327;28;20016;-68
2021/05/31 04:22:20;;;;;;;0.70;0.60;;;;;;;;;;5078849;28;20472;-70
2021/05/31 04:24:46;;;;;;;0.50;0.50;;;;;;;;;;5078516;28;20024;-71
2021/05/31 04:27:12;;;;;;;0.77;0.47;;;;;;;;;;5096845;28;20534;-70
2021/05/31 04:29:38;;;;;;;0.45;0.45;;;;;;;;;;5096912;28;20067;-70
2021/05/31 04:32:05;;;;;;;0.55;0.55;;;;;;;;;;5078338;28;20028;-70
2021/05/31 04:34:31;;;;;;;0.55;0.52;;;;;;;;;;5096526;28;20052;-69
2021/05/31 04:36:57;;;;;;;1.08;0.63;;;;;;;;;;5096860;28;20052;-70
2021/05/31 04:39:23;;;;;;;2.38;1.95;;;;;;;;;;5096443;28;20047;-71
2021/05/31 04:41:49;;;;;;;3.33;3.13;;;;;;;;;;5096942;28;20024;-70
2021/05/31 04:44:15;;;;;;;4.97;4.68;;;;;;;;;;5078398;28;20048;-70
2021/05/31 04:46:41;;;;;;;5.93;3.70;;;;;;;;;;5095891;28;20477;-70
2021/05/31 04:49:08;;;;;;;5.30;5.00;;;;;;;;;;5096787;28;20035;-69
2021/05/31 04:51:35;;;;;;;3.75;3.33;;;;;;;;;;5096203;28;20380;-70
2021/05/31 04:54:01;;;;;;;3.33;2.72;;;;;;;;;;5096476;28;20016;-71
2021/05/31 04:56:27;;;;;;;1.83;1.73;;;;;;;;;;5078200;28;20483;-69
2021/05/31 04:58:53;;;;;;;1.95;1.15;;;;;;;;;;5078232;28;20162;-71
2021/05/31 05:01:19;;;;;;;1.45;0.82;;;;;;;;;;5077887;28;20507;-70
2021/05/31 05:03:46;;;;;;;1.80;0.63;;;;;;;;;;5095250;28;20016;-69
2021/05/31 05:06:12;;;;;;;1.92;0.77;;;;;;;;;;5095506;28;20059;-71
2021/05/31 05:08:38;;;;;;;1.33;1.23;;;;;;;;;;5096513;28;20464;-70
2021/05/31 05:11:04;;;;;;;1.52;1.42;;;;;;;;;;5077927;28;20127;-70
2021/05/31 05:13:30;;;;;;;0.70;0.70;;;;;;;;;;5078127;28;20020;-70
2021/05/31 05:15:56;;;;;;;3.00;0.75;;;;;;;;;;5095984;28;20027;-70
2021/05/31 05:18:22;;;;;;;1.67;1.10;;;;;;;;;;5078429;28;20081;-70
2021/05/31 05:20:49;;;;;;;1.63;0.80;;;;;;;;;;5095632;28;20012;-70
2021/05/31 05:23:15;;;;;;;1.08;0.60;;;;;;;;;;5077749;28;20031;-69
2021/05/31 05:25:41;;;;;;;1.05;0.50;;;;;;;;;;5095740;28;20024;-70
2021/05/31 05:28:07;;;;;;;0.40;0.40;;;;;;;;;;5077317;28;20035;-70
2021/05/31 05:30:33;;;;;;;6.90;2.13;;;;;;;;;;5077580;28;20017;-70
2021/05/31 05:33:00;;;;;;;5.00;0.90;;;;;;;;;;5095659;28;20020;-70
2021/05/31 05:35:31;;;;;;;;;;;;;;;;;;5096008;28;20116;-70
2021/05/31 05:38:08;;;;;;;0.30;0.30;;;;;;;;;;5095698;28;19924;-70
2021/05/31 05:40:58;;;;;;;2.37;0.70;;;;;;;;;;5095894;28;20107;-70
2021/05/31 05:46:25;;;;;;;5.65;2.17;;;;;;;;;;5095298;28;20069;-70
2021/05/31 05:48:52;;;;;;;22.98;10.85;;;;;;;;;;5095254;28;20016;-70
2021/05/31 05:51:18;;;;;;;17.77;9.15;;;;;;;;;;5095327;28;20024;-71
2021/05/31 05:53:48;;;;;;;17.50;9.40;;;;;;;;;;5094993;28;20507;-71
2021/05/31 05:56:16;;;;;;;15.50;9.55;;;;;;;;;;5094595;28;20497;-70
2021/05/31 05:58:42;;;;;;;6.30;4.32;;;;;;;;;;5076963;28;20024;-71
2021/05/31 06:01:10;;;;;;;4.97;3.80;;;;;;;;;;5094786;28;20020;-72
2021/05/31 06:03:36;;;;;;;9.40;4.03;;;;;;;;;;5076531;28;20368;-71
2021/05/31 06:06:04;;;;;;;7.32;5.97;;;;;;;;;;5094634;28;20499;-69
2021/05/31 06:08:30;;;;;;;8.93;6.25;;;;;;;;;;5095242;28;20024;-67
2021/05/31 06:10:57;;;;;;;5.68;5.15;;;;;;;;;;5094356;28;20523;-65
2021/05/31 06:13:24;;;;;;;5.95;4.68;;;;;;;;;;5095221;28;20020;-65
2021/05/31 06:15:50;;;;;;;3.13;2.67;;;;;;;;;;5094815;28;20077;-67
2021/05/31 06:18:16;;;;;;;2.90;2.70;;;;;;;;;;5094288;28;20020;-67
2021/05/31 06:20:43;;;;;;;3.17;2.88;;;;;;;;;;5094807;28;20020;-68
2021/05/31 06:23:09;;;;;;;5.50;2.67;;;;;;;;;;5094635;28;20020;-69
2021/05/31 06:25:35;;;;;;;5.13;1.65;;;;;;;;;;5094616;28;20036;-68
2021/05/31 06:28:04;;;;;;;3.25;1.95;;;;;;;;;;5094667;28;20047;-70
2021/05/31 06:30:30;;;;;;;11.20;2.30;;;;;;;;;;5094275;28;20020;-66
2021/05/31 06:32:56;;;;;;;5.13;1.42;;;;;;;;;;5094561;28;20031;-67
2021/05/31 06:35:24;;;;;;;2.53;1.15;;;;;;;;;;5094267;28;20020;-67
2021/05/31 06:37:50;;;;;;;2.65;2.45;;;;;;;;;;5072401;28;20055;-68
2021/05/31 06:40:17;;;;;;;3.80;1.48;;;;;;;;;;5073859;28;20020;-67
2021/05/31 06:42:44;;;;;;;4.03;1.80;;;;;;;;;;5074190;28;20020;-68
2021/05/31 06:45:11;;;;;;;4.38;2.67;;;;;;;;;;5073467;28;20024;-68
2021/05/31 06:47:38;;;;;;;3.67;3.03;;;;;;;;;;5072779;28;20067;-67
2021/05/31 06:50:05;;;;;;;2.83;2.58;;;;;;;;;;5074288;28;20528;-72
2021/05/31 06:52:32;;;;;;;3.85;3.17;;;;;;;;;;5072450;28;20111;-68
2021/05/31 06:54:58;;;;;;;4.72;2.63;;;;;;;;;;5074518;28;20453;-67
2021/05/31 06:57:24;;;;;;;4.03;2.90;;;;;;;;;;5072644;28;20131;-68
2021/05/31 06:59:50;;;;;;;43.97;5.30;;;;;;;;;;5073628;28;20074;-70
2021/05/31 07:02:17;;;;;;;6.90;3.72;;;;;;;;;;5073876;28;20017;-68
2021/05/31 07:04:43;;;;;;;5.13;3.83;;;;;;;;;;5072546;28;20025;-67
2021/05/31 07:07:09;;;;;;;6.00;2.65;;;;;;;;;;5073235;28;20473;-69
2021/05/31 07:09:35;;;;;;;5.28;4.35;;;;;;;;;;5073498;28;20572;-68
2021/05/31 07:12:02;;;;;;;4.68;2.88;;;;;;;;;;5073765;28;20016;-70
2021/05/31 07:14:35;;;;;;;3.72;2.85;;;;;;;;;;5073141;28;20432;-68
2021/05/31 07:17:02;;;;;;;2.33;2.22;;;;;;;;;;5073510;28;20435;-69
2021/05/31 07:19:28;;;;;;;4.78;2.85;;;;;;;;;;5072100;28;20024;-71
2021/05/31 07:21:54;;;;;;;4.95;3.35;;;;;;;;;;5072332;28;20024;-69
2021/05/31 07:24:21;;;;;;;3.63;3.20;;;;;;;;;;5073461;28;20427;-71
2021/05/31 07:26:47;;;;;;;6.00;2.55;;;;;;;;;;5072973;28;20032;-69
2021/05/31 07:29:13;;;;;;;5.70;2.42;;;;;;;;;;5076475;28;20465;-71
2021/05/31 07:31:40;;;;;;;6.90;3.05;;;;;;;;;;5077733;28;20039;-72
2021/05/31 07:34:06;;;;;;;3.20;2.08;;;;;;;;;;5076112;28;20017;-71
2021/05/31 07:36:32;;;;;;;2.20;1.55;;;;;;;;;;5078088;28;20029;-69
2021/05/31 07:38:58;;;;;;;4.80;3.00;;;;;;;;;;5098179;28;20020;-68
2021/05/31 07:41:24;;;;;;;4.15;2.80;;;;;;;;;;5097510;28;20103;-68
2021/05/31 07:43:51;;;;;;;3.80;2.58;;;;;;;;;;5079621;28;20031;-69
2021/05/31 07:46:17;;;;;;;2.70;2.13;;;;;;;;;;5098130;28;20107;-70
2021/05/31 07:48:45;;;;;;;2.30;2.10;;;;;;;;;;5097424;28;20030;-70
2021/05/31 07:51:16;;;;;;;3.35;1.95;;;;;;;;;;5097644;28;20059;-71
2021/05/31 07:53:46;;;;;;;2.38;0.77;;;;;;;;;;5079475;28;20047;-70
2021/05/31 07:56:13;;;;;;;4.35;2.00;;;;;;;;;;5096988;28;20028;-69
2021/05/31 07:58:40;;;;;;;4.55;3.08;;;;;;;;;;5097522;28;20048;-70
2021/05/31 08:01:06;;;;;;;3.78;2.67;;;;;;;;;;5078986;28;20058;-69
2021/05/31 08:03:32;;;;;;;3.30;3.00;;;;;;;;;;5097461;28;20438;-71
2021/05/31 08:05:59;;;;;;;4.00;2.78;;;;;;;;;;5097298;28;20028;-70
2021/05/31 08:08:25;;;;;;;2.33;1.40;;;;;;;;;;5097659;28;20065;-71
2021/05/31 08:10:52;;;;;;;3.97;2.20;;;;;;;;;;5097110;28;20020;-72
2021/05/31 08:13:18;;;;;;;7.97;4.35;;;;;;;;;;5078719;28;20058;-71
2021/05/31 08:15:44;;;;;;;6.63;2.75;;;;;;;;;;5078989;28;20115;-70
2021/05/31 08:18:11;;;;;;;4.47;3.78;;;;;;;;;;5097451;28;20024;-70
2021/05/31 08:20:38;;;;;;;4.07;2.25;;;;;;;;;;5078560;28;20024;-70
2021/05/31 08:23:04;;;;;;;4.50;3.40;;;;;;;;;;5097095;28;20020;-71
2021/05/31 08:25:30;;;;;;;4.85;4.45;;;;;;;;;;5078702;28;20032;-71
2021/05/31 08:27:56;;;;;;;2.25;2.05;;;;;;;;;;5096381;28;20093;-72
2021/05/31 08:30:22;;;;;;;6.35;5.78;;;;;;;;;;5096914;28;20479;-70
2021/05/31 08:32:49;;;;;;;3.45;3.17;;;;;;;;;;5096774;28;20024;-72
2021/05/31 08:35:15;;;;;;;4.97;3.20;;;;;;;;;;5096823;28;20096;-70
2021/05/31 08:37:42;;;;;;;1.50;1.40;;;;;;;;;;5096374;28;20074;-70
2021/05/31 08:40:09;;;;;;;5.30;4.80;;;;;;;;;;5077901;28;20034;-72
2021/05/31 08:42:36;;;;;;;3.40;2.15;;;;;;;;;;5096684;28;20027;-71
2021/05/31 08:45:04;;;;;;;2.30;1.10;;;;;;;;;;5078402;28;20062;-71
2021/05/31 08:47:30;;;;;;;1.83;1.50;;;;;;;;;;5096245;28;20469;-70
2021/05/31 08:49:57;;;;;;;4.20;2.20;;;;;;;;;;5096643;28;20047;-72
2021/05/31 08:52:23;;;;;;;2.65;1.27;;;;;;;;;;5096535;28;20078;-71
2021/05/31 08:54:49;;;;;;;2.58;1.38;;;;;;;;;;5096146;28;20020;-71
2021/05/31 08:57:15;;;;;;;1.02;0.77;;;;;;;;;;5096386;28;20020;-71
2021/05/31 08:59:41;;;;;;;3.35;0.95;;;;;;;;;;5096628;28;20119;-71
2021/05/31 09:02:08;;;;;;;1.63;1.25;;;;;;;;;;5077852;28;20107;-72
2021/05/31 09:04:44;;;;;;;1.10;1.10;;;;;;;;;;5078135;28;20024;-72
2021/05/31 09:07:10;;;;;;;1.70;1.50;;;;;;;;;;5096774;28;20077;-72
2021/05/31 09:09:47;;;;;;;1.80;0.95;;;;;;;;;;5096198;28;20415;-71
2021/05/31 09:12:19;;;;;;;1.38;1.00;;;;;;;;;;5096392;28;20065;-71
2021/05/31 09:14:53;;;;;;;3.10;1.42;;;;;;;;;;5087389;28;20027;-72
2021/05/31 09:17:27;;;;;;;0.52;0.50;;;;;;;;;;5085050;28;20022;-70
2021/05/31 09:19:53;;;;;;;1.35;0.90;;;;;;;;;;5104374;28;20396;-71
2021/05/31 09:22:19;;;;;;;1.27;1.27;;;;;;;;;;5104125;28;20016;-71
2021/05/31 09:25:02;;;;;;;4.18;0.80;;;;;;;;;;5087421;28;20418;-70
2021/05/31 09:27:28;;;;;;;2.33;0.88;;;;;;;;;;5105247;28;20024;-71
2021/05/31 09:29:58;;;;;;;4.10;0.40;;;;;;;;;;5103773;28;20111;-71
2021/05/31 09:32:24;;;;;;;0.95;0.57;;;;;;;;;;5103469;28;20023;-73
2021/05/31 09:35:08;;;;;;;1.40;0.98;;;;;;;;;;5105598;28;20016;-72
2021/05/31 09:37:45;;;;;;;3.35;0.60;;;;;;;;;;5086460;28;20050;-72
2021/05/31 09:40:11;;;;;;;1.70;0.82;;;;;;;;;;5088173;28;20378;-71
2021/05/31 09:42:47;;;;;;;1.55;0.50;;;;;;;;;;5103816;28;20023;-73
2021/05/31 09:45:13;;;;;;;1.48;1.17;;;;;;;;;;5103641;28;20091;-70
2021/05/31 09:47:41;;;;;;;1.25;0.50;;;;;;;;;;5103879;28;20039;-72
2021/05/31 09:50:07;;;;;;;;;;;;;;;;;;5104566;28;20465;-71
2021/05/31 09:52:35;;;;;;;1.92;0.75;;;;;;;;;;5103494;28;19908;-71
2021/05/31 09:55:02;;;;;;;1.08;0.75;;;;;;;;;;5085329;28;20152;-69
2021/05/31 09:57:32;;;;;;;2.35;1.02;;;;;;;;;;5104677;28;20023;-69
2021/05/31 10:00:05;;;;;;;3.33;0.82;;;;;;;;;;5104165;28;20541;-70
2021/05/31 10:02:46;;;;;;;1.23;1.13;;;;;;;;;;5087590;28;20024;-69
2021/05/31 10:10:12;;;;;;;3.97;3.58;;;;;;;;;;5102981;28;20042;-69
2021/05/31 10:12:39;;;;;;;3.72;3.45;;;;;;;;;;5103431;28;20027;-71
2021/05/31 10:15:06;;;;;;;2.97;2.78;;;;;;;;;;5086533;28;20026;-71
2021/05/31 10:17:33;;;;;;;2.50;2.30;;;;;;;;;;5086458;28;20027;-70
2021/05/31 10:20:02;;;;;;;3.05;2.40;;;;;;;;;;5103235;28;20350;-70
2021/05/31 10:22:28;;;;;;;2.17;1.77;;;;;;;;;;5083882;28;20023;-70
2021/05/31 10:24:55;;;;;;;2.53;1.17;;;;;;;;;;5102529;28;20094;-71
2021/05/31 10:27:21;;;;;;;1.63;1.40;;;;;;;;;;5084695;28;20030;-69
2021/05/31 10:29:47;;;;;;;1.85;1.73;;;;;;;;;;5104595;28;20020;-70
2021/05/31 10:32:14;;;;;;;2.35;1.80;;;;;;;;;;5084213;28;20024;-69
2021/05/31 10:34:44;;;;;;;1.83;1.73;;;;;;;;;;5102659;28;20415;-72
2021/05/31 10:37:17;;;;;;;3.67;2.45;;;;;;;;;;5085854;28;20109;-68
2021/05/31 10:39:44;;;;;;;2.22;2.13;;;;;;;;;;5085522;28;20016;-69
2021/05/31 10:42:10;;;;;;;2.55;2.35;;;;;;;;;;5083841;28;20020;-71
2021/05/31 10:44:36;;;;;;;2.47;1.98;;;;;;;;;;5103323;28;20016;-70
2021/05/31 10:47:07;;;;;;;2.35;2.00;;;;;;;;;;5100494;28;20028;-70
2021/05/31 10:49:33;;;;;;;3.10;2.08;;;;;;;;;;5101789;28;20023;-69
2021/05/31 10:51:59;;;;;;;5.32;2.47;;;;;;;;;;5076104;28;20477;-72
2021/05/31 10:54:26;;;;;;;4.75;1.85;;;;;;;;;;5093987;28;20035;-71
2021/05/31 10:57:03;;;;;;;3.03;2.67;;;;;;;;;;5076065;28;20024;-73
2021/05/31 10:59:29;;;;;;;3.92;2.63;;;;;;;;;;5076022;28;20036;-74
2021/05/31 11:01:55;;;;;;;4.70;2.38;;;;;;;;;;5094039;28;20063;-74
2021/05/31 11:04:23;;;;;;;3.83;1.70;;;;;;;;;;5094188;28;20369;-71
2021/05/31 11:06:49;;;;;;;;;;;;;;;;;;5094152;28;20093;-74
2021/05/31 11:09:19;;;;;;;5.78;2.97;;;;;;;;;;5075717;28;20348;-73
2021/05/31 11:11:54;;;;;;;1.58;1.05;;;;;;;;;;5075852;28;20496;-68
2021/05/31 11:14:39;;;;;;;2.53;1.20;;;;;;;;;;5093344;28;20024;-69
2021/05/31 11:17:18;;;;;;;3.15;1.52;;;;;;;;;;5094213;28;20039;-69
2021/05/31 11:19:47;;;;;;;6.22;1.38;;;;;;;;;;5093873;28;20484;-71
2021/05/31 11:22:17;;;;;;;1.45;0.98;;;;;;;;;;5093301;28;20096;-74
2021/05/31 11:24:53;;;;;;;1.92;1.05;;;;;;;;;;5075697;28;20020;-74
2021/05/31 11:27:27;;;;;;;0.90;0.90;;;;;;;;;;5075628;28;20492;-81
2021/05/31 11:29:53;;;;;;;4.70;1.02;;;;;;;;;;5075617;28;20469;-73
2021/05/31 11:32:20;;;;;;;0.98;0.60;;;;;;;;;;5093445;28;20477;-73
2021/05/31 11:34:55;;;;;;;3.53;1.17;;;;;;;;;;5075370;28;20027;-72
2021/05/31 11:37:22;;;;;;;1.00;1.00;;;;;;;;;;5093933;28;20044;-74
2021/05/31 11:39:48;;;;;;;2.17;0.80;;;;;;;;;;5093695;28;20024;-67
2021/05/31 11:42:14;;;;;;;6.15;1.60;;;;;;;;;;5093255;28;20419;-68
2021/05/31 11:44:40;;;;;;;4.38;1.35;;;;;;;;;;5093930;28;20103;-68
2021/05/31 11:47:06;;;;;;;1.27;1.08;;;;;;;;;;5093237;28;20103;-67
2021/05/31 11:49:39;;;;;;;4.03;1.67;;;;;;;;;;5093062;28;20016;-70
2021/05/31 11:52:12;;;;;;;1.50;1.38;;;;;;;;;;5075474;28;20028;-68
2021/05/31 11:54:39;;;;;;;1.50;1.10;;;;;;;;;;5075462;28;20020;-68
2021/05/31 11:57:09;;;;;;;1.27;1.27;;;;;;;;;;5092981;28;20059;-67
2021/05/31 11:59:37;;;;;;;1.83;1.40;;;;;;;;;;5093339;28;20051;-67
2021/05/31 12:02:07;;;;;;;3.50;1.35;;;;;;;;;;5093769;28;20043;-68
2021/05/31 12:04:33;;;;;;;2.65;0.90;;;;;;;;;;5093208;28;20044;-67
2021/05/31 12:07:02;;;;;;;3.22;1.20;;;;;;;;;;5093631;28;20039;-68
2021/05/31 12:09:28;;;;;;;1.23;0.98;;;;;;;;;;5075294;28;20031;-69
2021/05/31 12:11:55;;;;;;;2.67;1.13;;;;;;;;;;5075088;28;20028;-69
2021/05/31 12:14:23;;;;;;;3.10;1.58;;;;;;;;;;5095935;28;20066;-71
2021/05/31 12:16:56;;;;;;;2.65;1.65;;;;;;;;;;5078609;28;20488;-69
2021/05/31 12:19:23;;;;;;;1.63;1.10;;;;;;;;;;5096895;28;20126;-67
2021/05/31 12:21:49;;;;;;;3.77;1.07;;;;;;;;;;5096990;28;20035;-69
2021/05/31 12:24:22;;;;;;;1.27;1.23;;;;;;;;;;5096656;28;20252;-68
2021/05/31 12:26:49;;;;;;;2.67;1.50;;;;;;;;;;5096943;28;20036;-72
2021/05/31 12:29:15;;;;;;;1.38;1.27;;;;;;;;;;5097379;28;20081;-68
2021/05/31 12:31:42;;;;;;;1.50;1.02;;;;;;;;;;5096345;28;20020;-67
2021/05/31 12:34:09;;;;;;;1.95;1.10;;;;;;;;;;5079062;28;20060;-68
2021/05/31 12:36:36;;;;;;;2.70;1.10;;;;;;;;;;5096885;28;20020;-67
2021/05/31 12:39:03;;;;;;;2.60;1.67;;;;;;;;;;5096651;28;20047;-70
2021/05/31 12:41:29;;;;;;;2.70;1.92;;;;;;;;;;5096774;28;20017;-68
2021/05/31 12:44:05;;;;;;;3.60;2.05;;;;;;;;;;5096921;28;20024;-67
2021/05/31 12:46:38;;;;;;;4.93;2.22;;;;;;;;;;5078129;28;20059;-67
2021/05/31 12:49:04;;;;;;;3.72;1.25;;;;;;;;;;5096362;28;20020;-69
2021/05/31 12:51:30;;;;;;;1.23;1.15;;;;;;;;;;5096548;28;20370;-67
2021/05/31 12:54:00;;;;;;;2.25;0.82;;;;;;;;;;5096144;28;20024;-72
2021/05/31 12:56:29;;;;;;;2.78;1.50;;;;;;;;;;5096262;28;20020;-72
2021/05/31 12:59:02;;;;;;;5.70;1.88;;;;;;;;;;5077828;28;20051;-72
2021/05/31 13:01:29;;;;;;;6.22;1.55;;;;;;;;;;5078077;28;20050;-71
2021/05/31 13:03:57;;;;;;;5.43;1.80;;;;;;;;;;5078362;28;20035;-71
2021/05/31 13:06:34;;;;;;;3.88;1.50;;;;;;;;;;5095900;28;20024;-71
2021/05/31 13:09:01;;;;;;;3.92;1.02;;;;;;;;;;5096200;28;20025;-72
2021/05/31 13:11:38;;;;;;;2.10;1.25;;;;;;;;;;5077994;28;20052;-71
2021/05/31 13:14:04;;;;;;;;;;;;;;;;;;5096324;28;20028;-70
2021/05/31 13:16:30;;;;;;;5.07;1.58;;;;;;;;;;5077883;28;19910;-70
2021/05/31 13:18:59;;;;;;;3.53;1.85;;;;;;;;;;5096610;28;20024;-71
2021/05/31 13:21:28;;;;;;;4.35;1.70;;;;;;;;;;5094882;28;20051;-70
2021/05/31 13:23:54;;;;;;;3.67;1.85;;;;;;;;;;5077155;28;20520;-70
2021/05/31 13:26:23;;;;;;;4.30;1.63;;;;;;;;;;5094598;28;20043;-70
2021/05/31 13:28:54;;;;;;;4.40;2.10;;;;;;;;;;5077378;28;20099;-70
2021/05/31 13:31:21;;;;;;;4.65;1.88;;;;;;;;;;5095793;28;20099;-71
2021/05/31 13:33:48;;;;;;;4.60;1.98;;;;;;;;;;5077435;28;20481;-70
2021/05/31 13:36:16;;;;;;;3.42;1.08;;;;;;;;;;5095525;28;20107;-70
2021/05/31 13:38:42;;;;;;;10.20;1.65;;;;;;;;;;5096107;28;20071;-70
2021/05/31 13:41:08;;;;;;;3.03;1.63;;;;;;;;;;5077147;28;20028;-70
2021/05/31 13:43:36;;;;;;;3.05;1.00;;;;;;;;;;5077373;28;20253;-70
2021/05/31 13:46:04;;;;;;;1.27;1.15;;;;;;;;;;5095354;28;20093;-70
2021/05/31 13:48:30;;;;;;;4.38;1.83;;;;;;;;;;5077511;28;20024;-70
2021/05/31 13:50:58;;;;;;;3.27;1.47;;;;;;;;;;5095361;28;20028;-70
2021/05/31 13:53:24;;;;;;;;;;;;;;;;;;5096234;28;20573;-71
2021/05/31 13:55:50;;;;;;;0.68;0.63;;;;;;;;;;5095041;28;19904;-70
2021/05/31 13:58:17;;;;;;;2.83;0.50;;;;;;;;;;5095514;28;20031;-70
2021/05/31 14:00:44;;;;;;;2.53;1.35;;;;;;;;;;5095224;28;20023;-70
2021/05/31 14:03:10;;;;;;;2.65;0.63;;;;;;;;;;5076613;28;20080;-70
2021/05/31 14:05:39;;;;;;;1.40;0.47;;;;;;;;;;5076879;28;20376;-70
2021/05/31 14:08:06;;;;;;;4.40;1.40;;;;;;;;;;5095561;28;20020;-69
2021/05/31 14:10:34;;;;;;;7.18;0.77;;;;;;;;;;5076466;28;20024;-70
2021/05/31 14:13:01;;;;;;;0.35;0.32;;;;;;;;;;5094958;28;20096;-70
2021/05/31 14:15:28;;;;;;;4.68;0.47;;;;;;;;;;5094883;28;20027;-70
2021/05/31 14:17:54;;;;;;;1.80;0.55;;;;;;;;;;5076290;28;20039;-69
2021/05/31 14:20:21;;;;;;;4.22;0.77;;;;;;;;;;5094820;28;20039;-70
2021/05/31 14:22:52;;;;;;;1.90;1.58;;;;;;;;;;5094779;28;20051;-69
2021/05/31 14:25:18;;;;;;;2.75;1.23;;;;;;;;;;5095022;28;20024;-70
2021/05/31 14:27:44;;;;;;;1.35;0.68;;;;;;;;;;5076434;28;20032;-68
2021/05/31 14:30:11;;;;;;;4.63;1.23;;;;;;;;;;5094536;28;20026;-69
2021/05/31 14:32:38;;;;;;;3.15;0.90;;;;;;;;;;5094309;28;20375;-69
2021/05/31 14:35:05;;;;;;;3.25;0.63;;;;;;;;;;5094716;28;20030;-70
2021/05/31 14:37:31;;;;;;;5.75;2.55;;;;;;;;;;5093709;28;20044;-70
2021/05/31 14:39:57;;;;;;;5.05;3.10;;;;;;;;;;5094479;28;20016;-70
2021/05/31 14:42:23;;;;;;;2.17;1.67;;;;;;;;;;5094130;28;20020;-69
2021/05/31 14:44:49;;;;;;;8.38;2.55;;;;;;;;;;5094119;28;20028;-68
2021/05/31 14:47:15;;;;;;;4.70;2.03;;;;;;;;;;5094547;28;20091;-70
2021/05/31 14:49:43;;;;;;;2.60;2.00;;;;;;;;;;5094300;28;20025;-69
2021/05/31 14:52:09;;;;;;;4.45;1.55;;;;;;;;;;5093980;28;20016;-69
2021/05/31 14:54:35;;;;;;;1.42;1.25;;;;;;;;;;5094412;28;20064;-69
2021/05/31 14:57:02;;;;;;;2.40;0.70;;;;;;;;;;5094179;28;20031;-69
2021/05/31 14:59:28;;;;;;;3.35;1.75;;;;;;;;;;5093854;28;20480;-69
2021/05/31 15:01:55;;;;;;;3.40;1.00;;;;;;;;;;5094130;28;20032;-70